Terminal Aerodrome Forecast
Issued by NWS

Home | Current Version | Previous Version | Graphics & Text | Print | Product List | Glossary On
Versions: 1 2 3 4 5 6 7 8 9 10 11 12 13 14 15 16 17
000
FTUS43 KBIS 010528
TAFJMS
TAF
KJMS 010528Z 0106/0206 10008KT 5SM -SHRA SCT035 OVC080
     FM010900 11007KT 5SM BR BKN035 OVC050
     FM012000 08007KT P6SM BKN050=

USA.gov is the U.S. government's official web portal to all federal, state and local government web resources and services.